Terminal Aerodrome Forecast
Issued by NWS Mt. Holly, NJ

Home | Current Version | Previous Version | Text Only | Print | Product List | Glossary On
Versions: 1 2 3 4 5 6 7 8 9 10 11 12 13 14 15 16 17 18 19
171
FTUS41 KPHI 290324 AAA
TAFTTN
TAF AMD
KTTN 290324Z 2903/2924 VRB03KT P6SM -SHRA OVC100
      TEMPO 2906/2907 4SM RA BR OVC035
     FM290700 10008KT 4SM RA BR OVC025
      TEMPO 2907/2910 1SM +TSRA OVC009CB
     FM291400 03010KT P6SM VCSH OVC020
      TEMPO 2914/2916 4SM -SHRA
     FM291600 02010G16KT P6SM BKN040=

USA.gov is the U.S. government's official web portal to all federal, state and local government web resources and services.